Time;durP1;ratioP1;P1;durP2;ratioP2;P2;SDS_P1;SDS_P2;PMS_P1;PMS_P2;Temp;Humidity;BMP_temperature;BMP_pressure;BME280_temperature;BME280_humidity;BME280_pressure;Samples;Min_cycle;Max_cycle;Signal;HPM_P1;HPM_P2
2023/05/22 00:00:38;;;;;;;4.97;4.57;;;;;;;;;;5023700;28;20516;-64
2023/05/22 00:03:04;;;;;;;4.13;3.83;;;;;;;;;;5023599;28;20061;-63
2023/05/22 00:05:30;;;;;;;4.57;4.18;;;;;;;;;;5024388;28;20405;-63
2023/05/22 00:07:56;;;;;;;4.13;3.67;;;;;;;;;;5023290;28;20395;-63
2023/05/22 00:10:22;;;;;;;4.28;3.92;;;;;;;;;;5024378;28;20546;-63
2023/05/22 00:12:49;;;;;;;4.20;3.90;;;;;;;;;;5025970;28;20152;-63
2023/05/22 00:15:14;;;;;;;3.83;3.53;;;;;;;;;;5027256;28;20154;-63
2023/05/22 00:17:41;;;;;;;3.70;3.40;;;;;;;;;;5026031;28;20091;-63
2023/05/22 00:20:09;;;;;;;3.67;3.33;;;;;;;;;;5027305;28;20053;-63
2023/05/22 00:22:35;;;;;;;5.20;4.32;;;;;;;;;;5027058;28;20049;-63
2023/05/22 00:25:05;;;;;;;4.63;4.22;;;;;;;;;;5027485;28;20049;-63
2023/05/22 00:27:31;;;;;;;5.85;5.35;;;;;;;;;;5027743;28;20045;-63
2023/05/22 00:29:57;;;;;;;5.32;4.93;;;;;;;;;;5026831;28;20046;-63
2023/05/22 00:32:23;;;;;;;4.57;4.28;;;;;;;;;;5027749;28;20504;-63
2023/05/22 00:34:49;;;;;;;5.72;5.22;;;;;;;;;;5023725;28;20401;-63
2023/05/22 00:37:15;;;;;;;3.80;3.50;;;;;;;;;;5027271;28;20033;-63
2023/05/22 00:39:41;;;;;;;4.40;4.00;;;;;;;;;;5015191;28;20041;-63
2023/05/22 00:42:07;;;;;;;3.13;2.92;;;;;;;;;;5026111;28;20042;-63
2023/05/22 00:44:33;;;;;;;3.80;3.50;;;;;;;;;;5026572;28;20260;-63
2023/05/22 00:46:59;;;;;;;2.95;2.75;;;;;;;;;;5026939;28;20512;-63
2023/05/22 00:49:25;;;;;;;3.42;3.13;;;;;;;;;;5026772;28;20489;-63
2023/05/22 00:51:51;;;;;;;3.15;2.95;;;;;;;;;;5027018;28;20087;-63
2023/05/22 00:54:17;;;;;;;4.40;4.00;;;;;;;;;;5027144;28;20129;-63
2023/05/22 00:56:43;;;;;;;3.70;3.40;;;;;;;;;;5026832;28;20060;-63
2023/05/22 00:59:09;;;;;;;3.22;2.90;;;;;;;;;;5026631;28;20052;-63
2023/05/22 01:01:40;;;;;;;3.10;2.90;;;;;;;;;;5027061;28;20057;-63
2023/05/22 01:04:08;;;;;;;4.30;4.00;;;;;;;;;;5025923;28;20049;-63
2023/05/22 01:06:34;;;;;;;4.93;4.53;;;;;;;;;;5026849;28;20073;-63
2023/05/22 01:09:00;;;;;;;4.28;3.95;;;;;;;;;;5026726;28;20069;-63
2023/05/22 01:11:44;;;;;;;3.78;3.47;;;;;;;;;;5005512;28;20106;-63
2023/05/22 01:14:22;;;;;;;5.07;4.68;;;;;;;;;;5008895;28;20049;-63
2023/05/22 01:17:09;;;;;;;5.10;4.38;;;;;;;;;;5027041;28;20042;-63
2023/05/22 01:19:52;;;;;;;4.20;3.83;;;;;;;;;;4986198;28;20500;-63
2023/05/22 01:22:27;;;;;;;3.40;3.10;;;;;;;;;;5027154;28;20041;-63
2023/05/22 01:25:29;;;;;;;2.95;2.75;;;;;;;;;;5025770;28;20268;-63
2023/05/22 01:28:10;;;;;;;3.17;2.97;;;;;;;;;;4945536;29;20043;-63
2023/05/22 01:30:44;;;;;;;3.70;3.40;;;;;;;;;;5018187;28;20049;-63
2023/05/22 01:33:12;;;;;;;2.95;2.65;;;;;;;;;;5007809;28;20088;-63
2023/05/22 01:35:39;;;;;;;3.75;3.45;;;;;;;;;;5026249;28;20551;-63
2023/05/22 01:38:06;;;;;;;3.10;2.90;;;;;;;;;;5025876;28;20405;-63
2023/05/22 01:40:32;;;;;;;3.38;3.08;;;;;;;;;;5025933;28;20056;-63
2023/05/22 01:42:58;;;;;;;3.35;3.08;;;;;;;;;;5025957;28;20045;-63
2023/05/22 01:45:24;;;;;;;2.88;2.67;;;;;;;;;;5025533;28;20501;-63
2023/05/22 01:47:50;;;;;;;3.00;2.80;;;;;;;;;;5023932;28;20080;-63
2023/05/22 01:50:16;;;;;;;3.30;3.08;;;;;;;;;;5026502;28;20128;-63
2023/05/22 01:52:48;;;;;;;2.88;2.67;;;;;;;;;;5025423;28;20041;-63
2023/05/22 01:55:41;;;;;;;3.30;3.00;;;;;;;;;;5025926;28;20045;-63
2023/05/22 01:58:16;;;;;;;3.35;3.15;;;;;;;;;;4982979;28;20581;-63
2023/05/22 02:00:44;;;;;;;3.60;3.30;;;;;;;;;;5005239;28;20502;-63
2023/05/22 02:03:15;;;;;;;3.53;3.22;;;;;;;;;;5005743;28;20093;-63
2023/05/22 02:05:42;;;;;;;3.33;3.13;;;;;;;;;;5006369;28;20486;-63
2023/05/22 02:08:09;;;;;;;3.03;2.78;;;;;;;;;;5004786;28;20406;-63
2023/05/22 02:10:36;;;;;;;2.95;2.75;;;;;;;;;;5005862;28;20091;-63
2023/05/22 02:13:03;;;;;;;3.30;3.10;;;;;;;;;;5005454;28;20490;-63
2023/05/22 02:15:29;;;;;;;2.42;2.22;;;;;;;;;;5004903;28;20077;-63
2023/05/22 02:17:58;;;;;;;2.88;2.67;;;;;;;;;;5005772;28;20038;-64
2023/05/22 02:20:24;;;;;;;2.95;2.75;;;;;;;;;;5004951;28;20045;-64
2023/05/22 02:22:50;;;;;;;2.75;2.55;;;;;;;;;;5009565;28;20042;-63
2023/05/22 02:25:16;;;;;;;3.17;2.88;;;;;;;;;;5019268;28;20033;-63
2023/05/22 02:27:43;;;;;;;2.30;2.20;;;;;;;;;;5022695;28;20541;-63
2023/05/22 02:30:10;;;;;;;3.05;2.85;;;;;;;;;;5023066;28;20045;-63
2023/05/22 02:32:36;;;;;;;3.58;3.38;;;;;;;;;;5021075;28;20045;-63
2023/05/22 02:35:03;;;;;;;4.05;3.75;;;;;;;;;;5021188;28;20410;-63
2023/05/22 02:37:29;;;;;;;3.85;3.53;;;;;;;;;;5022436;28;20095;-63
2023/05/22 02:39:55;;;;;;;3.22;2.97;;;;;;;;;;5023030;28;20045;-63
2023/05/22 02:42:21;;;;;;;3.30;3.10;;;;;;;;;;5021933;28;20041;-63
2023/05/22 02:44:47;;;;;;;3.75;3.55;;;;;;;;;;5023334;28;20512;-63
2023/05/22 02:47:13;;;;;;;3.70;3.40;;;;;;;;;;5023048;28;20041;-63
2023/05/22 02:49:40;;;;;;;3.72;3.42;;;;;;;;;;5022165;28;20465;-63
2023/05/22 02:52:06;;;;;;;4.07;3.78;;;;;;;;;;5023007;28;20135;-63
2023/05/22 02:54:32;;;;;;;3.72;3.42;;;;;;;;;;5022361;28;20183;-63
2023/05/22 02:56:58;;;;;;;3.90;3.60;;;;;;;;;;5019994;28;20515;-63
2023/05/22 02:59:24;;;;;;;5.40;4.10;;;;;;;;;;5018987;28;20238;-63
2023/05/22 03:01:50;;;;;;;4.07;3.78;;;;;;;;;;5023249;28;20049;-63
2023/05/22 03:04:16;;;;;;;4.35;4.05;;;;;;;;;;5021827;28;20085;-63
2023/05/22 03:06:44;;;;;;;4.60;4.28;;;;;;;;;;5019168;28;20486;-63
2023/05/22 03:09:10;;;;;;;4.40;4.00;;;;;;;;;;5022884;28;20041;-63
2023/05/22 03:11:36;;;;;;;3.88;3.58;;;;;;;;;;5020811;28;20046;-63
2023/05/22 03:14:02;;;;;;;4.30;3.90;;;;;;;;;;5022972;28;20048;-63
2023/05/22 03:16:28;;;;;;;3.75;3.45;;;;;;;;;;5021993;28;20511;-63
2023/05/22 03:19:10;;;;;;;3.45;3.20;;;;;;;;;;5021944;28;20037;-63
2023/05/22 03:21:36;;;;;;;3.42;3.20;;;;;;;;;;5020265;28;20038;-63
2023/05/22 03:24:02;;;;;;;3.20;2.90;;;;;;;;;;5022278;28;20116;-63
2023/05/22 03:26:28;;;;;;;3.75;3.53;;;;;;;;;;5022186;28;20052;-63
2023/05/22 03:28:55;;;;;;;3.65;3.35;;;;;;;;;;5022729;28;20033;-63
2023/05/22 03:31:21;;;;;;;3.05;2.78;;;;;;;;;;5021656;28;20049;-63
2023/05/22 03:33:47;;;;;;;3.45;2.70;;;;;;;;;;5017912;28;20134;-63
2023/05/22 03:36:13;;;;;;;2.78;2.58;;;;;;;;;;5019897;28;20041;-63
2023/05/22 03:38:40;;;;;;;3.00;2.80;;;;;;;;;;5021472;28;20393;-63
2023/05/22 03:41:06;;;;;;;2.63;2.42;;;;;;;;;;5022537;28;20441;-63
2023/05/22 03:43:32;;;;;;;2.88;2.67;;;;;;;;;;5021891;28;20045;-63
2023/05/22 03:45:58;;;;;;;2.40;2.20;;;;;;;;;;5013944;28;20341;-63
2023/05/22 03:48:25;;;;;;;2.88;2.67;;;;;;;;;;5025761;28;20041;-63
2023/05/22 03:50:51;;;;;;;3.65;3.35;;;;;;;;;;5026678;28;20216;-63
2023/05/22 03:53:17;;;;;;;2.70;2.50;;;;;;;;;;5020724;28;20041;-63
2023/05/22 03:55:43;;;;;;;2.78;2.58;;;;;;;;;;5026682;28;20057;-63
2023/05/22 03:58:09;;;;;;;2.85;2.60;;;;;;;;;;5026366;28;20071;-63
2023/05/22 04:00:36;;;;;;;3.20;2.90;;;;;;;;;;5024884;28;20456;-63
2023/05/22 04:03:03;;;;;;;2.75;2.55;;;;;;;;;;5026019;28;20054;-63
2023/05/22 04:05:30;;;;;;;2.90;2.70;;;;;;;;;;5025893;28;20049;-63
2023/05/22 04:07:56;;;;;;;2.53;2.33;;;;;;;;;;5025371;28;20048;-63
2023/05/22 04:10:22;;;;;;;2.13;2.00;;;;;;;;;;5021036;28;20049;-63
2023/05/22 04:12:49;;;;;;;2.25;2.05;;;;;;;;;;5025888;28;20040;-63
2023/05/22 04:15:15;;;;;;;1.88;1.77;;;;;;;;;;5019161;28;20053;-63
2023/05/22 04:17:41;;;;;;;2.50;2.30;;;;;;;;;;5025194;28;20040;-64
2023/05/22 04:20:07;;;;;;;2.80;2.60;;;;;;;;;;5024798;28;20128;-64
2023/05/22 04:22:33;;;;;;;4.10;3.70;;;;;;;;;;5025196;28;20128;-64
2023/05/22 04:24:59;;;;;;;4.25;3.95;;;;;;;;;;5025668;28;20049;-63
2023/05/22 04:27:28;;;;;;;4.43;4.13;;;;;;;;;;5024151;28;20049;-63
2023/05/22 04:29:54;;;;;;;4.40;4.10;;;;;;;;;;5019210;28;20049;-63
2023/05/22 04:32:20;;;;;;;4.93;4.53;;;;;;;;;;5024839;28;20072;-63
2023/05/22 04:34:49;;;;;;;4.93;4.53;;;;;;;;;;5024777;28;20124;-63
2023/05/22 04:37:17;;;;;;;4.97;4.50;;;;;;;;;;5025514;28;20401;-63
2023/05/22 04:39:44;;;;;;;4.38;3.95;;;;;;;;;;5023530;28;20053;-63
2023/05/22 04:42:10;;;;;;;4.90;4.50;;;;;;;;;;5024951;28;20806;-63
2023/05/22 04:44:37;;;;;;;4.50;4.10;;;;;;;;;;5022155;28;20132;-63
2023/05/22 04:47:03;;;;;;;5.22;4.80;;;;;;;;;;5018882;28;20049;-63
2023/05/22 04:49:30;;;;;;;4.68;4.38;;;;;;;;;;5023379;28;20502;-63
2023/05/22 04:51:57;;;;;;;5.85;5.43;;;;;;;;;;5025158;28;20045;-63
2023/05/22 04:54:23;;;;;;;4.95;4.53;;;;;;;;;;5024956;28;20037;-63
2023/05/22 04:56:50;;;;;;;5.72;5.20;;;;;;;;;;5024649;28;20038;-63
2023/05/22 04:59:18;;;;;;;5.18;4.78;;;;;;;;;;5024469;28;20049;-63
2023/05/22 05:01:45;;;;;;;4.30;3.90;;;;;;;;;;5020642;28;20505;-63
2023/05/22 05:04:11;;;;;;;3.88;3.58;;;;;;;;;;5024378;28;20565;-63
2023/05/22 05:06:37;;;;;;;2.90;2.70;;;;;;;;;;5021404;28;20457;-63
2023/05/22 05:09:03;;;;;;;3.25;3.05;;;;;;;;;;5020057;28;20498;-63
2023/05/22 05:11:29;;;;;;;2.67;2.47;;;;;;;;;;5006060;28;20128;-64
2023/05/22 05:13:55;;;;;;;2.90;2.70;;;;;;;;;;5024118;28;20033;-63
2023/05/22 05:16:23;;;;;;;2.35;2.20;;;;;;;;;;5021585;28;20502;-63
2023/05/22 05:18:50;;;;;;;2.38;2.17;;;;;;;;;;5025229;28;20061;-63
2023/05/22 05:21:16;;;;;;;2.50;2.30;;;;;;;;;;5024261;28;20084;-63
2023/05/22 05:23:43;;;;;;;1.80;1.70;;;;;;;;;;5017955;28;20102;-63
2023/05/22 05:26:09;;;;;;;1.80;1.70;;;;;;;;;;5024744;28;20260;-63
2023/05/22 05:28:35;;;;;;;1.70;1.60;;;;;;;;;;5024182;28;20410;-63
2023/05/22 05:31:01;;;;;;;1.90;1.80;;;;;;;;;;5015520;28;20038;-63
2023/05/22 05:33:27;;;;;;;1.40;1.30;;;;;;;;;;5014291;28;20505;-63
2023/05/22 05:35:53;;;;;;;1.30;1.20;;;;;;;;;;5024751;28;20069;-63
2023/05/22 05:38:19;;;;;;;1.30;1.20;;;;;;;;;;5023831;28;20576;-63
2023/05/22 05:40:45;;;;;;;1.40;1.30;;;;;;;;;;5021668;28;20482;-63
2023/05/22 05:43:15;;;;;;;1.63;1.52;;;;;;;;;;5016666;28;20045;-63
2023/05/22 05:45:42;;;;;;;1.05;1.05;;;;;;;;;;5022545;28;20050;-63
2023/05/22 05:48:08;;;;;;;1.70;1.60;;;;;;;;;;5016513;28;20049;-63
2023/05/22 05:50:34;;;;;;;2.08;1.98;;;;;;;;;;5023168;28;20064;-63
2023/05/22 05:53:01;;;;;;;2.58;2.17;;;;;;;;;;5021536;28;20466;-63
2023/05/22 05:55:26;;;;;;;5.75;4.70;;;;;;;;;;5023269;28;20091;-63
2023/05/22 05:57:53;;;;;;;4.07;3.78;;;;;;;;;;5019890;28;20053;-63
2023/05/22 06:00:19;;;;;;;6.10;5.20;;;;;;;;;;5021271;28;20508;-63
2023/05/22 06:02:45;;;;;;;8.50;6.50;;;;;;;;;;5022677;28;20057;-63
2023/05/22 06:05:12;;;;;;;5.82;4.68;;;;;;;;;;5024050;28;20567;-63
2023/05/22 06:07:38;;;;;;;6.97;6.28;;;;;;;;;;5021137;28;20410;-63
2023/05/22 06:10:07;;;;;;;8.90;7.15;;;;;;;;;;5022549;28;20060;-63
2023/05/22 06:12:33;;;;;;;7.63;6.80;;;;;;;;;;5021870;28;20033;-63
2023/05/22 06:14:59;;;;;;;8.05;6.43;;;;;;;;;;5019686;28;20388;-63
2023/05/22 06:17:26;;;;;;;6.95;6.35;;;;;;;;;;5025830;28;20513;-63
2023/05/22 06:19:51;;;;;;;5.82;5.22;;;;;;;;;;5025080;28;20045;-63
2023/05/22 06:22:17;;;;;;;7.43;5.13;;;;;;;;;;5025632;28;20103;-63
2023/05/22 06:24:43;;;;;;;4.40;4.00;;;;;;;;;;5022191;28;20042;-63
2023/05/22 06:27:09;;;;;;;6.40;4.07;;;;;;;;;;5024250;28;20041;-63
2023/05/22 06:29:35;;;;;;;5.85;4.30;;;;;;;;;;5024998;28;20081;-63
2023/05/22 06:32:01;;;;;;;5.88;5.05;;;;;;;;;;5002582;28;20069;-64
2023/05/22 06:34:28;;;;;;;9.32;4.68;;;;;;;;;;5002000;28;20077;-64
2023/05/22 06:36:54;;;;;;;8.13;4.90;;;;;;;;;;5018674;28;20068;-64
2023/05/22 06:39:20;;;;;;;6.85;4.38;;;;;;;;;;5025404;28;20037;-64
2023/05/22 06:41:46;;;;;;;9.13;4.68;;;;;;;;;;5007036;28;20037;-64
2023/05/22 06:44:12;;;;;;;10.43;5.18;;;;;;;;;;5025332;28;20110;-64
2023/05/22 06:46:38;;;;;;;12.25;5.75;;;;;;;;;;5008678;28;20045;-64
2023/05/22 06:49:05;;;;;;;9.45;5.10;;;;;;;;;;5019026;28;20129;-63
2023/05/22 06:51:31;;;;;;;6.90;5.22;;;;;;;;;;5024573;28;20065;-63
2023/05/22 06:53:57;;;;;;;8.45;4.95;;;;;;;;;;5024885;28;20045;-63
2023/05/22 06:56:23;;;;;;;6.75;5.03;;;;;;;;;;5009162;28;20045;-63
2023/05/22 06:58:49;;;;;;;7.55;4.43;;;;;;;;;;5002025;28;20414;-63
2023/05/22 07:01:15;;;;;;;5.32;4.32;;;;;;;;;;4999131;28;20406;-63
2023/05/22 07:03:41;;;;;;;6.20;4.43;;;;;;;;;;4999518;28;20449;-63
2023/05/22 07:06:07;;;;;;;7.90;3.95;;;;;;;;;;5006224;28;20054;-63
2023/05/22 07:08:33;;;;;;;7.13;4.80;;;;;;;;;;5012549;28;20504;-63
2023/05/22 07:11:00;;;;;;;7.07;5.28;;;;;;;;;;5016675;28;20094;-62
2023/05/22 07:13:30;;;;;;;6.18;4.18;;;;;;;;;;5021742;28;20497;-63
2023/05/22 07:15:56;;;;;;;7.45;4.63;;;;;;;;;;5023814;28;20091;-67
2023/05/22 07:18:22;;;;;;;4.68;4.28;;;;;;;;;;5024863;28;20042;-65
2023/05/22 07:20:48;;;;;;;5.45;4.82;;;;;;;;;;5018858;28;20487;-63
2023/05/22 07:23:14;;;;;;;9.48;4.47;;;;;;;;;;4999641;28;20474;-63
2023/05/22 07:25:41;;;;;;;7.43;4.32;;;;;;;;;;5023846;28;20680;-63
2023/05/22 07:28:08;;;;;;;6.50;4.88;;;;;;;;;;5007404;28;20038;-63
2023/05/22 07:30:38;;;;;;;5.85;4.85;;;;;;;;;;5003311;28;20100;-64
2023/05/22 07:33:04;;;;;;;5.18;4.43;;;;;;;;;;5003206;28;20042;-64
2023/05/22 07:35:30;;;;;;;5.60;4.00;;;;;;;;;;5004270;28;20038;-64
2023/05/22 07:37:56;;;;;;;5.53;3.70;;;;;;;;;;5001853;28;20043;-64
2023/05/22 07:40:23;;;;;;;4.68;4.03;;;;;;;;;;5009387;28;20554;-64
2023/05/22 07:42:49;;;;;;;5.68;3.88;;;;;;;;;;5020934;28;20165;-64
2023/05/22 07:45:15;;;;;;;6.22;4.47;;;;;;;;;;5022810;28;20628;-64
2023/05/22 07:47:41;;;;;;;4.10;3.70;;;;;;;;;;5015514;28;20197;-64
2023/05/22 07:50:07;;;;;;;3.88;3.58;;;;;;;;;;5023229;28;20116;-64
2023/05/22 07:52:33;;;;;;;4.47;3.60;;;;;;;;;;5022309;28;20053;-64
2023/05/22 07:54:59;;;;;;;4.15;3.80;;;;;;;;;;5024058;28;20214;-64
2023/05/22 07:57:25;;;;;;;4.07;3.67;;;;;;;;;;5024334;28;20086;-64
2023/05/22 07:59:51;;;;;;;4.68;3.38;;;;;;;;;;5023929;28;20125;-64
2023/05/22 08:02:18;;;;;;;4.13;3.40;;;;;;;;;;5024384;28;20089;-64
2023/05/22 08:04:44;;;;;;;3.70;3.30;;;;;;;;;;5022943;28;20549;-64
2023/05/22 08:07:10;;;;;;;3.83;3.28;;;;;;;;;;5012513;28;20512;-63
2023/05/22 08:09:36;;;;;;;5.13;3.83;;;;;;;;;;5004449;28;20514;-63
2023/05/22 08:12:02;;;;;;;5.55;4.05;;;;;;;;;;5012825;28;20088;-64
2023/05/22 08:14:28;;;;;;;4.53;3.55;;;;;;;;;;5024512;28;20033;-63
2023/05/22 08:16:55;;;;;;;3.95;3.63;;;;;;;;;;5024125;28;20057;-63
2023/05/22 08:19:21;;;;;;;5.63;3.85;;;;;;;;;;5009389;28;20404;-64
2023/05/22 08:21:47;;;;;;;4.10;3.50;;;;;;;;;;5015457;28;20057;-62
2023/05/22 08:24:13;;;;;;;4.45;3.30;;;;;;;;;;5024071;28;20465;-62
2023/05/22 08:26:40;;;;;;;7.32;3.92;;;;;;;;;;5005896;28;20042;-62
2023/05/22 08:29:06;;;;;;;4.38;3.63;;;;;;;;;;5003766;28;20053;-62
2023/05/22 08:31:33;;;;;;;6.20;3.80;;;;;;;;;;5004433;28;20075;-63
2023/05/22 08:34:01;;;;;;;4.15;3.72;;;;;;;;;;5018177;28;20045;-62
2023/05/22 08:36:30;;;;;;;5.47;3.65;;;;;;;;;;5009736;28;20072;-62
2023/05/22 08:38:56;;;;;;;3.80;3.40;;;;;;;;;;5027099;28;20513;-62
2023/05/22 08:41:22;;;;;;;5.60;4.90;;;;;;;;;;5027101;28;20033;-64
2023/05/22 08:43:48;;;;;;;4.50;3.95;;;;;;;;;;5027309;28;20041;-64
2023/05/22 08:46:16;;;;;;;5.70;4.60;;;;;;;;;;5027425;28;20053;-62
2023/05/22 08:48:43;;;;;;;4.45;4.05;;;;;;;;;;5023952;28;20140;-62
2023/05/22 08:51:12;;;;;;;3.88;3.53;;;;;;;;;;5003990;28;20089;-62
2023/05/22 08:53:40;;;;;;;3.63;3.33;;;;;;;;;;5005533;28;20088;-62
2023/05/22 08:56:07;;;;;;;5.65;3.90;;;;;;;;;;5006295;28;20054;-62
2023/05/22 08:58:34;;;;;;;5.43;3.85;;;;;;;;;;5000307;28;20050;-62
2023/05/22 09:01:01;;;;;;;4.22;3.70;;;;;;;;;;4992261;28;20557;-62
2023/05/22 09:03:31;;;;;;;4.85;3.80;;;;;;;;;;5000816;28;20041;-62
2023/05/22 09:05:57;;;;;;;4.15;3.53;;;;;;;;;;4999266;28;20103;-62
2023/05/22 09:08:23;;;;;;;3.70;3.40;;;;;;;;;;4998471;28;20121;-62
2023/05/22 09:10:49;;;;;;;3.72;3.42;;;;;;;;;;5004052;28;20455;-62
2023/05/22 09:13:26;;;;;;;4.10;3.75;;;;;;;;;;4996993;28;20070;-62
2023/05/22 09:15:52;;;;;;;4.25;3.95;;;;;;;;;;5004023;28;20168;-62
2023/05/22 09:18:18;;;;;;;4.45;4.07;;;;;;;;;;5001815;28;20572;-62
2023/05/22 09:20:44;;;;;;;4.18;3.78;;;;;;;;;;4999852;28;20132;-62
2023/05/22 09:23:16;;;;;;;4.30;3.95;;;;;;;;;;4996536;28;20125;-62
2023/05/22 09:25:42;;;;;;;6.85;4.53;;;;;;;;;;5006319;28;20414;-62
2023/05/22 09:28:08;;;;;;;4.55;4.15;;;;;;;;;;5006284;28;20041;-62
2023/05/22 09:30:35;;;;;;;4.47;4.03;;;;;;;;;;4999587;28;20486;-62
2023/05/22 09:33:01;;;;;;;4.40;4.00;;;;;;;;;;4996083;28;20046;-62
2023/05/22 09:35:27;;;;;;;4.82;4.22;;;;;;;;;;5004463;28;20085;-62
2023/05/22 09:37:56;;;;;;;5.20;4.70;;;;;;;;;;5003974;28;20080;-62
2023/05/22 09:40:22;;;;;;;5.22;4.72;;;;;;;;;;5002873;28;20120;-62
2023/05/22 09:42:48;;;;;;;5.82;4.97;;;;;;;;;;5000772;28;20490;-62
2023/05/22 09:45:18;;;;;;;5.88;5.38;;;;;;;;;;4996881;28;20042;-62
2023/05/22 09:47:48;;;;;;;7.63;6.32;;;;;;;;;;5000676;28;20097;-62
2023/05/22 09:50:14;;;;;;;8.73;6.75;;;;;;;;;;4994994;28;20782;-62
2023/05/22 09:52:41;;;;;;;9.10;6.20;;;;;;;;;;4999683;28;20089;-62
2023/05/22 09:55:07;;;;;;;8.05;6.13;;;;;;;;;;4998096;28;20057;-62
2023/05/22 09:57:41;;;;;;;7.22;5.32;;;;;;;;;;4997610;28;20042;-62
2023/05/22 10:00:11;;;;;;;6.35;4.75;;;;;;;;;;5003015;28;20050;-62
2023/05/22 10:02:37;;;;;;;6.38;4.72;;;;;;;;;;5001012;28;20068;-62
2023/05/22 10:05:09;;;;;;;4.90;4.40;;;;;;;;;;4985353;28;20054;-62
2023/05/22 10:07:36;;;;;;;4.57;4.18;;;;;;;;;;4986299;28;20097;-62
2023/05/22 10:10:11;;;;;;;4.53;4.03;;;;;;;;;;5002980;28;20054;-62
2023/05/22 10:12:57;;;;;;;5.82;5.30;;;;;;;;;;5004407;28;20111;-63
2023/05/22 10:15:23;;;;;;;7.18;5.80;;;;;;;;;;5004165;28;20486;-62
2023/05/22 10:17:49;;;;;;;5.85;5.22;;;;;;;;;;5000522;28;20048;-62
2023/05/22 10:20:16;;;;;;;6.55;5.88;;;;;;;;;;5000462;28;20034;-62
2023/05/22 10:22:43;;;;;;;6.22;5.38;;;;;;;;;;4994512;28;20553;-62
2023/05/22 10:25:10;;;;;;;4.80;4.32;;;;;;;;;;4998340;28;20248;-62
2023/05/22 10:27:36;;;;;;;4.65;4.20;;;;;;;;;;4988802;28;20050;-62
2023/05/22 10:30:10;;;;;;;4.40;4.00;;;;;;;;;;4998388;28;20040;-62
2023/05/22 10:32:55;;;;;;;7.88;5.78;;;;;;;;;;5022136;28;20043;-62
2023/05/22 10:35:24;;;;;;;6.20;4.90;;;;;;;;;;5020110;28;20492;-62
2023/05/22 10:37:56;;;;;;;5.70;4.93;;;;;;;;;;5019379;28;20080;-62
2023/05/22 10:40:30;;;;;;;7.40;5.20;;;;;;;;;;5003556;28;20044;-62
2023/05/22 10:42:57;;;;;;;8.68;6.50;;;;;;;;;;5002672;28;20265;-62
2023/05/22 10:45:25;;;;;;;9.07;7.20;;;;;;;;;;4986368;28;20271;-63
2023/05/22 10:48:02;;;;;;;5.95;5.38;;;;;;;;;;5003969;28;20096;-63
2023/05/22 10:50:28;;;;;;;6.25;5.53;;;;;;;;;;5005614;28;20038;-62
2023/05/22 10:53:14;;;;;;;6.55;5.60;;;;;;;;;;5016133;28;20125;-62
2023/05/22 10:55:47;;;;;;;5.75;5.22;;;;;;;;;;5022184;28;20030;-62
2023/05/22 10:58:13;;;;;;;6.43;5.35;;;;;;;;;;5001426;28;20080;-62
2023/05/22 11:00:39;;;;;;;6.13;5.53;;;;;;;;;;5004839;28;20037;-62
2023/05/22 11:03:05;;;;;;;9.20;6.93;;;;;;;;;;5002199;28;20570;-63
2023/05/22 11:05:33;;;;;;;9.02;7.13;;;;;;;;;;5002609;28;20088;-63
2023/05/22 11:08:31;;;;;;;9.75;6.30;;;;;;;;;;5015994;28;20495;-63
2023/05/22 11:11:00;;;;;;;8.60;5.70;;;;;;;;;;5024518;28;20103;-63
2023/05/22 11:13:26;;;;;;;6.38;5.78;;;;;;;;;;5012341;28;20117;-63
2023/05/22 11:15:55;;;;;;;7.15;6.28;;;;;;;;;;5023301;28;20060;-63
2023/05/22 11:18:21;;;;;;;5.60;5.10;;;;;;;;;;5025230;28;20053;-62
2023/05/22 11:20:47;;;;;;;6.05;5.18;;;;;;;;;;5024374;28;20041;-62
2023/05/22 11:23:13;;;;;;;7.13;5.82;;;;;;;;;;5008803;28;20046;-63
2023/05/22 11:25:40;;;;;;;5.72;4.95;;;;;;;;;;5000948;28;20077;-63
2023/05/22 11:28:09;;;;;;;6.30;5.50;;;;;;;;;;5024072;28;20045;-63
2023/05/22 11:30:35;;;;;;;5.78;5.10;;;;;;;;;;5006042;28;20104;-63
2023/05/22 11:33:01;;;;;;;5.63;4.82;;;;;;;;;;5015470;28;20533;-63
2023/05/22 11:35:27;;;;;;;5.68;4.78;;;;;;;;;;5016086;28;20045;-63
2023/05/22 11:37:55;;;;;;;3.50;3.30;;;;;;;;;;5023891;28;20042;-63
2023/05/22 11:40:23;;;;;;;3.60;3.30;;;;;;;;;;5024898;28;20049;-63
2023/05/22 11:42:49;;;;;;;4.55;3.50;;;;;;;;;;5024676;28;20116;-62
2023/05/22 11:45:16;;;;;;;3.47;3.17;;;;;;;;;;5017040;28;20038;-63
2023/05/22 11:47:43;;;;;;;7.10;6.40;;;;;;;;;;5012816;28;20052;-63
2023/05/22 11:50:09;;;;;;;6.30;4.97;;;;;;;;;;5011511;28;20514;-62
2023/05/22 11:52:36;;;;;;;4.88;4.47;;;;;;;;;;5000521;28;20037;-62
2023/05/22 11:55:04;;;;;;;6.32;4.15;;;;;;;;;;5023310;28;20080;-62
2023/05/22 11:57:30;;;;;;;6.00;5.03;;;;;;;;;;5022454;28;20124;-62
2023/05/22 11:59:57;;;;;;;4.25;3.85;;;;;;;;;;5023400;28;20054;-62
2023/05/22 12:02:23;;;;;;;4.40;4.00;;;;;;;;;;5024825;28;20162;-62
2023/05/22 12:04:53;;;;;;;4.05;3.58;;;;;;;;;;5024122;28;20044;-63
2023/05/22 12:07:20;;;;;;;3.88;3.42;;;;;;;;;;5024468;28;20056;-63
2023/05/22 12:09:46;;;;;;;5.07;4.70;;;;;;;;;;5024784;28;20118;-63
2023/05/22 12:12:12;;;;;;;6.32;4.20;;;;;;;;;;5013511;28;20048;-63
2023/05/22 12:14:38;;;;;;;5.55;5.05;;;;;;;;;;5007145;28;20048;-63
2023/05/22 12:17:05;;;;;;;4.90;4.28;;;;;;;;;;5006587;28;20438;-63
2023/05/22 12:19:31;;;;;;;6.07;4.65;;;;;;;;;;5007551;28;20042;-63
2023/05/22 12:21:58;;;;;;;4.65;4.10;;;;;;;;;;5026632;28;20505;-62
2023/05/22 12:24:24;;;;;;;4.22;3.83;;;;;;;;;;5026998;28;20497;-62
2023/05/22 12:26:51;;;;;;;4.60;4.20;;;;;;;;;;5026532;28;20049;-63
2023/05/22 12:29:17;;;;;;;4.32;4.03;;;;;;;;;;5026711;28;20083;-63
2023/05/22 12:31:45;;;;;;;7.53;4.13;;;;;;;;;;5013473;28;20077;-63
2023/05/22 12:34:11;;;;;;;7.88;5.20;;;;;;;;;;5004648;28;20052;-63
2023/05/22 12:36:38;;;;;;;5.13;4.32;;;;;;;;;;5010367;28;20037;-63
2023/05/22 12:39:08;;;;;;;5.07;4.00;;;;;;;;;;5018840;28;20046;-62
2023/05/22 12:41:34;;;;;;;4.22;3.83;;;;;;;;;;5026697;28;20045;-63
2023/05/22 12:44:01;;;;;;;3.90;3.38;;;;;;;;;;5027094;28;20483;-63
2023/05/22 12:46:27;;;;;;;5.85;3.95;;;;;;;;;;5026607;28;20121;-63
2023/05/22 12:48:53;;;;;;;4.35;3.95;;;;;;;;;;5025863;28;20048;-63
2023/05/22 12:51:20;;;;;;;6.20;4.15;;;;;;;;;;5026402;28;20043;-63
2023/05/22 12:53:46;;;;;;;3.67;3.28;;;;;;;;;;5024570;28;20494;-64
2023/05/22 12:56:12;;;;;;;4.50;4.07;;;;;;;;;;5027361;28;20548;-63
2023/05/22 12:58:38;;;;;;;4.50;3.92;;;;;;;;;;5027062;28;20128;-63
2023/05/22 13:01:04;;;;;;;8.43;6.20;;;;;;;;;;5026092;28;20490;-63
2023/05/22 13:03:30;;;;;;;4.47;4.07;;;;;;;;;;5027096;28;20120;-63
2023/05/22 13:05:56;;;;;;;7.15;6.45;;;;;;;;;;5027163;28;20153;-63
2023/05/22 13:08:23;;;;;;;7.55;4.80;;;;;;;;;;5025332;28;20376;-63
2023/05/22 13:10:49;;;;;;;6.00;5.50;;;;;;;;;;5007265;28;20076;-63
2023/05/22 13:13:15;;;;;;;8.02;5.72;;;;;;;;;;5025615;28;20045;-63
2023/05/22 13:15:41;;;;;;;4.90;4.40;;;;;;;;;;5024467;28;20136;-63
2023/05/22 13:18:07;;;;;;;5.95;5.28;;;;;;;;;;5025040;28;20045;-63
2023/05/22 13:20:35;;;;;;;6.57;4.70;;;;;;;;;;5024705;28;20767;-63
2023/05/22 13:23:02;;;;;;;5.25;4.50;;;;;;;;;;5025088;28;20052;-63
2023/05/22 13:25:28;;;;;;;4.70;3.65;;;;;;;;;;5026562;28;20107;-63
2023/05/22 13:27:54;;;;;;;5.40;4.35;;;;;;;;;;5026861;28;20046;-63
2023/05/22 13:30:20;;;;;;;6.07;4.47;;;;;;;;;;5026035;28;20053;-63
2023/05/22 13:32:46;;;;;;;4.57;3.55;;;;;;;;;;5026437;28;20042;-63
2023/05/22 13:35:12;;;;;;;5.75;4.75;;;;;;;;;;5008724;28;20049;-63
2023/05/22 13:37:38;;;;;;;6.25;4.07;;;;;;;;;;5025715;28;20117;-63
2023/05/22 13:40:05;;;;;;;3.53;3.22;;;;;;;;;;5026467;28;20050;-63
2023/05/22 13:42:31;;;;;;;4.80;4.40;;;;;;;;;;5026757;28;20045;-63
2023/05/22 13:44:57;;;;;;;9.63;5.85;;;;;;;;;;5025798;28;20280;-63
2023/05/22 13:47:24;;;;;;;7.38;5.10;;;;;;;;;;5026949;28;20401;-63
2023/05/22 13:49:50;;;;;;;5.25;4.65;;;;;;;;;;5025845;28;20056;-63
2023/05/22 13:52:16;;;;;;;5.25;4.80;;;;;;;;;;5024592;28;20038;-63
2023/05/22 13:54:42;;;;;;;5.00;4.60;;;;;;;;;;5012837;28;20038;-63
2023/05/22 13:57:08;;;;;;;5.93;4.75;;;;;;;;;;5018239;28;20041;-62
2023/05/22 13:59:34;;;;;;;5.95;5.32;;;;;;;;;;5025912;28;20043;-62
2023/05/22 14:02:00;;;;;;;7.13;5.35;;;;;;;;;;5025613;28;20096;-62
2023/05/22 14:04:26;;;;;;;7.47;5.47;;;;;;;;;;5007937;28;20085;-62
2023/05/22 14:06:52;;;;;;;5.47;4.90;;;;;;;;;;4991587;28;20327;-62
2023/05/22 14:09:19;;;;;;;4.30;4.00;;;;;;;;;;4986401;28;20068;-62
2023/05/22 14:11:45;;;;;;;4.80;4.40;;;;;;;;;;4994446;28;20493;-62
2023/05/22 14:14:11;;;;;;;4.28;3.97;;;;;;;;;;5005767;28;20450;-62
2023/05/22 14:16:37;;;;;;;6.70;6.05;;;;;;;;;;5006142;28;20052;-62
2023/05/22 14:19:03;;;;;;;4.97;4.57;;;;;;;;;;5005135;28;20145;-62
2023/05/22 14:21:30;;;;;;;4.57;4.18;;;;;;;;;;5005922;28;20041;-62
2023/05/22 14:23:56;;;;;;;3.97;3.47;;;;;;;;;;5005464;28;20506;-62
2023/05/22 14:26:23;;;;;;;3.75;3.45;;;;;;;;;;5004889;28;20556;-62
2023/05/22 14:28:49;;;;;;;5.78;4.85;;;;;;;;;;5005416;28;20128;-62
2023/05/22 14:31:15;;;;;;;5.30;4.53;;;;;;;;;;5004631;28;20124;-63
2023/05/22 14:33:41;;;;;;;6.00;4.93;;;;;;;;;;5005178;28;20227;-62
2023/05/22 14:36:07;;;;;;;5.50;4.97;;;;;;;;;;5005487;28;20056;-62
2023/05/22 14:38:33;;;;;;;3.80;3.50;;;;;;;;;;5005345;28;20121;-62
2023/05/22 14:41:02;;;;;;;4.35;3.95;;;;;;;;;;5003521;28;20050;-62
2023/05/22 14:43:28;;;;;;;4.00;3.60;;;;;;;;;;5004750;28;20091;-62